sensor_id;sensor_type;location;lat;lon;timestamp;temperature;humidity
27741;DHT22;15134;48.768;9.184;2023-10-08T00:00:26;16.00;99.90
27741;DHT22;15134;48.768;9.184;2023-10-08T00:03:11;16.00;99.90
27741;DHT22;15134;48.768;9.184;2023-10-08T00:05:38;16.10;99.90
27741;DHT22;15134;48.768;9.184;2023-10-08T00:08:05;16.10;99.90
27741;DHT22;15134;48.768;9.184;2023-10-08T00:10:35;16.10;99.90
27741;DHT22;15134;48.768;9.184;2023-10-08T00:13:02;16.20;99.90
27741;DHT22;15134;48.768;9.184;2023-10-08T00:15:28;16.20;99.90
27741;DHT22;15134;48.768;9.184;2023-10-08T00:17:54;16.20;99.90
27741;DHT22;15134;48.768;9.184;2023-10-08T00:20:20;16.10;99.90
27741;DHT22;15134;48.768;9.184;2023-10-08T00:22:51;16.10;99.90
27741;DHT22;15134;48.768;9.184;2023-10-08T00:25:20;16.10;99.90
27741;DHT22;15134;48.768;9.184;2023-10-08T00:27:46;16.00;99.90
27741;DHT22;15134;48.768;9.184;2023-10-08T00:30:16;16.00;99.90
27741;DHT22;15134;48.768;9.184;2023-10-08T00:32:45;16.00;99.90
27741;DHT22;15134;48.768;9.184;2023-10-08T00:35:11;16.00;99.90
27741;DHT22;15134;48.768;9.184;2023-10-08T00:37:42;16.00;99.90
27741;DHT22;15134;48.768;9.184;2023-10-08T00:40:08;16.00;99.90
27741;DHT22;15134;48.768;9.184;2023-10-08T00:42:37;16.10;99.90
27741;DHT22;15134;48.768;9.184;2023-10-08T00:45:10;16.10;99.90
27741;DHT22;15134;48.768;9.184;2023-10-08T00:47:39;16.00;99.90
27741;DHT22;15134;48.768;9.184;2023-10-08T00:50:12;16.00;99.90
27741;DHT22;15134;48.768;9.184;2023-10-08T00:52:48;16.00;99.90
27741;DHT22;15134;48.768;9.184;2023-10-08T00:55:26;16.00;99.90
27741;DHT22;15134;48.768;9.184;2023-10-08T00:57:58;15.90;99.90
27741;DHT22;15134;48.768;9.184;2023-10-08T01:00:25;15.90;99.90
27741;DHT22;15134;48.768;9.184;2023-10-08T01:02:59;15.90;99.90
27741;DHT22;15134;48.768;9.184;2023-10-08T01:05:27;15.90;99.90
27741;DHT22;15134;48.768;9.184;2023-10-08T01:08:13;15.90;99.90
27741;DHT22;15134;48.768;9.184;2023-10-08T01:10:43;15.80;99.90
27741;DHT22;15134;48.768;9.184;2023-10-08T01:13:12;15.80;99.90
27741;DHT22;15134;48.768;9.184;2023-10-08T01:15:45;15.80;99.90
27741;DHT22;15134;48.768;9.184;2023-10-08T01:18:13;15.70;99.90
27741;DHT22;15134;48.768;9.184;2023-10-08T01:20:44;15.70;99.90
27741;DHT22;15134;48.768;9.184;2023-10-08T01:23:13;15.70;99.90
27741;DHT22;15134;48.768;9.184;2023-10-08T01:25:43;15.70;99.90
27741;DHT22;15134;48.768;9.184;2023-10-08T01:28:09;15.70;99.90
27741;DHT22;15134;48.768;9.184;2023-10-08T01:30:43;15.70;99.90
27741;DHT22;15134;48.768;9.184;2023-10-08T01:33:13;15.70;99.90
27741;DHT22;15134;48.768;9.184;2023-10-08T01:35:41;15.60;99.90
27741;DHT22;15134;48.768;9.184;2023-10-08T01:38:08;15.60;99.90
27741;DHT22;15134;48.768;9.184;2023-10-08T01:40:42;15.50;99.90
27741;DHT22;15134;48.768;9.184;2023-10-08T01:43:08;15.60;99.90
27741;DHT22;15134;48.768;9.184;2023-10-08T01:45:38;15.60;99.90
27741;DHT22;15134;48.768;9.184;2023-10-08T01:48:09;15.60;99.90
27741;DHT22;15134;48.768;9.184;2023-10-08T01:50:38;15.60;99.90
27741;DHT22;15134;48.768;9.184;2023-10-08T01:53:04;15.50;99.90
27741;DHT22;15134;48.768;9.184;2023-10-08T01:55:36;15.60;99.90
27741;DHT22;15134;48.768;9.184;2023-10-08T01:58:16;15.60;99.90
27741;DHT22;15134;48.768;9.184;2023-10-08T02:00:43;15.60;99.90
27741;DHT22;15134;48.768;9.184;2023-10-08T02:03:13;15.60;99.90
27741;DHT22;15134;48.768;9.184;2023-10-08T02:05:44;15.70;99.90
27741;DHT22;15134;48.768;9.184;2023-10-08T02:08:11;15.70;99.90
27741;DHT22;15134;48.768;9.184;2023-10-08T02:10:39;15.70;99.90
27741;DHT22;15134;48.768;9.184;2023-10-08T02:13:07;15.70;99.90
27741;DHT22;15134;48.768;9.184;2023-10-08T02:15:41;15.70;99.90
27741;DHT22;15134;48.768;9.184;2023-10-08T02:18:06;15.60;99.90
27741;DHT22;15134;48.768;9.184;2023-10-08T02:20:32;15.60;99.90
27741;DHT22;15134;48.768;9.184;2023-10-08T02:22:59;15.50;99.90
27741;DHT22;15134;48.768;9.184;2023-10-08T02:25:26;15.50;99.90
27741;DHT22;15134;48.768;9.184;2023-10-08T02:27:53;15.40;99.90
27741;DHT22;15134;48.768;9.184;2023-10-08T02:30:19;15.40;99.90
27741;DHT22;15134;48.768;9.184;2023-10-08T02:32:44;15.40;99.90
27741;DHT22;15134;48.768;9.184;2023-10-08T02:35:12;15.50;99.90
27741;DHT22;15134;48.768;9.184;2023-10-08T02:37:39;15.50;99.90
27741;DHT22;15134;48.768;9.184;2023-10-08T02:40:09;15.50;99.90
27741;DHT22;15134;48.768;9.184;2023-10-08T02:42:48;15.40;99.90
27741;DHT22;15134;48.768;9.184;2023-10-08T02:45:15;15.40;99.90
27741;DHT22;15134;48.768;9.184;2023-10-08T02:47:44;15.30;99.90
27741;DHT22;15134;48.768;9.184;2023-10-08T02:50:11;15.30;99.90
27741;DHT22;15134;48.768;9.184;2023-10-08T02:52:37;15.30;99.90
27741;DHT22;15134;48.768;9.184;2023-10-08T02:55:03;15.30;99.90
27741;DHT22;15134;48.768;9.184;2023-10-08T02:57:30;15.30;99.90
27741;DHT22;15134;48.768;9.184;2023-10-08T02:59:57;15.20;99.90
27741;DHT22;15134;48.768;9.184;2023-10-08T03:02:23;15.20;99.90
27741;DHT22;15134;48.768;9.184;2023-10-08T03:04:51;15.20;99.90
27741;DHT22;15134;48.768;9.184;2023-10-08T03:07:18;15.10;99.90
27741;DHT22;15134;48.768;9.184;2023-10-08T03:09:50;15.10;99.90
27741;DHT22;15134;48.768;9.184;2023-10-08T03:12:17;15.10;99.90
27741;DHT22;15134;48.768;9.184;2023-10-08T03:14:43;15.00;99.90
27741;DHT22;15134;48.768;9.184;2023-10-08T03:17:28;15.00;99.90
27741;DHT22;15134;48.768;9.184;2023-10-08T03:19:55;15.00;99.90
27741;DHT22;15134;48.768;9.184;2023-10-08T03:22:27;15.00;99.90
27741;DHT22;15134;48.768;9.184;2023-10-08T03:24:59;15.00;99.90
27741;DHT22;15134;48.768;9.184;2023-10-08T03:27:41;15.00;99.90
27741;DHT22;15134;48.768;9.184;2023-10-08T03:30:08;14.80;99.90
27741;DHT22;15134;48.768;9.184;2023-10-08T03:32:43;14.70;99.90
27741;DHT22;15134;48.768;9.184;2023-10-08T03:35:16;14.70;99.90
27741;DHT22;15134;48.768;9.184;2023-10-08T03:37:53;14.70;99.90
27741;DHT22;15134;48.768;9.184;2023-10-08T03:40:20;14.70;99.90
27741;DHT22;15134;48.768;9.184;2023-10-08T03:42:56;14.70;99.90
27741;DHT22;15134;48.768;9.184;2023-10-08T03:45:22;14.60;99.90
27741;DHT22;15134;48.768;9.184;2023-10-08T03:48:06;14.70;99.90
27741;DHT22;15134;48.768;9.184;2023-10-08T03:50:33;14.70;99.90
27741;DHT22;15134;48.768;9.184;2023-10-08T03:53:07;14.80;99.90
27741;DHT22;15134;48.768;9.184;2023-10-08T03:55:40;14.80;99.90
27741;DHT22;15134;48.768;9.184;2023-10-08T03:58:07;14.70;99.90
27741;DHT22;15134;48.768;9.184;2023-10-08T04:00:38;14.70;99.90
27741;DHT22;15134;48.768;9.184;2023-10-08T04:03:08;14.70;99.90
27741;DHT22;15134;48.768;9.184;2023-10-08T04:05:37;14.70;99.90
27741;DHT22;15134;48.768;9.184;2023-10-08T04:08:17;14.70;99.90
27741;DHT22;15134;48.768;9.184;2023-10-08T04:10:45;14.80;99.90
27741;DHT22;15134;48.768;9.184;2023-10-08T04:13:11;14.70;99.90
27741;DHT22;15134;48.768;9.184;2023-10-08T04:15:38;14.70;99.90
27741;DHT22;15134;48.768;9.184;2023-10-08T04:18:10;14.60;99.90
27741;DHT22;15134;48.768;9.184;2023-10-08T04:20:36;14.70;99.90
27741;DHT22;15134;48.768;9.184;2023-10-08T04:23:07;14.70;99.90
27741;DHT22;15134;48.768;9.184;2023-10-08T04:25:53;14.60;99.90
27741;DHT22;15134;48.768;9.184;2023-10-08T04:28:20;14.70;99.90
27741;DHT22;15134;48.768;9.184;2023-10-08T04:30:47;14.60;99.90
27741;DHT22;15134;48.768;9.184;2023-10-08T04:33:16;14.70;99.90
27741;DHT22;15134;48.768;9.184;2023-10-08T04:35:43;14.70;99.90
27741;DHT22;15134;48.768;9.184;2023-10-08T04:38:22;14.70;99.90
27741;DHT22;15134;48.768;9.184;2023-10-08T04:40:49;14.70;99.90
27741;DHT22;15134;48.768;9.184;2023-10-08T04:43:24;14.70;99.90
27741;DHT22;15134;48.768;9.184;2023-10-08T04:46:02;14.70;99.90
27741;DHT22;15134;48.768;9.184;2023-10-08T04:49:03;14.70;99.90
27741;DHT22;15134;48.768;9.184;2023-10-08T04:51:32;14.70;99.90
27741;DHT22;15134;48.768;9.184;2023-10-08T04:54:10;14.70;99.90
27741;DHT22;15134;48.768;9.184;2023-10-08T04:56:42;14.80;99.90
27741;DHT22;15134;48.768;9.184;2023-10-08T04:59:08;14.70;99.90
27741;DHT22;15134;48.768;9.184;2023-10-08T05:01:37;14.70;99.90
27741;DHT22;15134;48.768;9.184;2023-10-08T05:04:35;14.70;99.90
27741;DHT22;15134;48.768;9.184;2023-10-08T05:07:12;14.80;99.90
27741;DHT22;15134;48.768;9.184;2023-10-08T05:09:57;14.80;99.90
27741;DHT22;15134;48.768;9.184;2023-10-08T05:12:29;14.80;99.90
27741;DHT22;15134;48.768;9.184;2023-10-08T05:14:58;14.80;99.90
27741;DHT22;15134;48.768;9.184;2023-10-08T05:17:43;14.80;99.90
27741;DHT22;15134;48.768;9.184;2023-10-08T05:20:18;14.80;99.90
27741;DHT22;15134;48.768;9.184;2023-10-08T05:23:13;14.70;99.90
27741;DHT22;15134;48.768;9.184;2023-10-08T05:26:03;14.70;99.90
27741;DHT22;15134;48.768;9.184;2023-10-08T05:28:32;14.70;99.90
27741;DHT22;15134;48.768;9.184;2023-10-08T05:31:08;14.70;99.90
27741;DHT22;15134;48.768;9.184;2023-10-08T05:33:57;14.70;99.90
27741;DHT22;15134;48.768;9.184;2023-10-08T05:36:49;14.70;99.90
27741;DHT22;15134;48.768;9.184;2023-10-08T05:39:30;14.70;99.90
27741;DHT22;15134;48.768;9.184;2023-10-08T05:42:09;14.70;99.90
27741;DHT22;15134;48.768;9.184;2023-10-08T05:44:57;14.70;99.90
27741;DHT22;15134;48.768;9.184;2023-10-08T05:47:36;14.70;99.90
27741;DHT22;15134;48.768;9.184;2023-10-08T05:50:03;14.70;99.90
27741;DHT22;15134;48.768;9.184;2023-10-08T05:52:44;14.70;99.90
27741;DHT22;15134;48.768;9.184;2023-10-08T05:55:31;14.70;99.90
27741;DHT22;15134;48.768;9.184;2023-10-08T05:58:06;14.70;99.90
27741;DHT22;15134;48.768;9.184;2023-10-08T06:00:46;14.70;99.90
27741;DHT22;15134;48.768;9.184;2023-10-08T06:03:14;14.70;99.90
27741;DHT22;15134;48.768;9.184;2023-10-08T06:06:00;14.80;99.90
27741;DHT22;15134;48.768;9.184;2023-10-08T06:08:39;14.70;99.90
27741;DHT22;15134;48.768;9.184;2023-10-08T06:11:23;14.70;99.90
27741;DHT22;15134;48.768;9.184;2023-10-08T06:14:07;14.70;99.90
27741;DHT22;15134;48.768;9.184;2023-10-08T06:16:45;14.70;99.90
27741;DHT22;15134;48.768;9.184;2023-10-08T06:19:27;14.70;99.90
27741;DHT22;15134;48.768;9.184;2023-10-08T06:21:53;14.80;99.90
27741;DHT22;15134;48.768;9.184;2023-10-08T06:24:19;14.80;99.90
27741;DHT22;15134;48.768;9.184;2023-10-08T06:26:46;14.80;99.90
27741;DHT22;15134;48.768;9.184;2023-10-08T06:29:15;14.80;99.90
27741;DHT22;15134;48.768;9.184;2023-10-08T06:31:47;14.90;99.90
27741;DHT22;15134;48.768;9.184;2023-10-08T06:34:17;14.90;99.90
27741;DHT22;15134;48.768;9.184;2023-10-08T06:36:51;14.90;99.90
27741;DHT22;15134;48.768;9.184;2023-10-08T06:39:23;15.00;99.90
27741;DHT22;15134;48.768;9.184;2023-10-08T06:41:59;15.00;99.90
27741;DHT22;15134;48.768;9.184;2023-10-08T06:44:29;15.00;99.90
27741;DHT22;15134;48.768;9.184;2023-10-08T06:46:55;15.10;99.90
27741;DHT22;15134;48.768;9.184;2023-10-08T06:49:22;15.10;99.90
27741;DHT22;15134;48.768;9.184;2023-10-08T06:51:54;15.10;99.90
27741;DHT22;15134;48.768;9.184;2023-10-08T06:54:20;15.10;99.90
27741;DHT22;15134;48.768;9.184;2023-10-08T06:56:48;15.10;99.90
27741;DHT22;15134;48.768;9.184;2023-10-08T06:59:17;15.10;99.90
27741;DHT22;15134;48.768;9.184;2023-10-08T07:01:43;15.20;99.90
27741;DHT22;15134;48.768;9.184;2023-10-08T07:04:13;15.20;99.90
27741;DHT22;15134;48.768;9.184;2023-10-08T07:06:42;15.30;99.90
27741;DHT22;15134;48.768;9.184;2023-10-08T07:09:10;15.40;99.90
27741;DHT22;15134;48.768;9.184;2023-10-08T07:11:57;15.40;99.90
27741;DHT22;15134;48.768;9.184;2023-10-08T07:14:26;15.40;99.90
27741;DHT22;15134;48.768;9.184;2023-10-08T07:16:54;15.40;99.90
27741;DHT22;15134;48.768;9.184;2023-10-08T07:19:21;15.40;99.90
27741;DHT22;15134;48.768;9.184;2023-10-08T07:21:49;15.50;99.90
27741;DHT22;15134;48.768;9.184;2023-10-08T07:24:20;15.60;99.90
27741;DHT22;15134;48.768;9.184;2023-10-08T07:26:48;15.70;99.90
27741;DHT22;15134;48.768;9.184;2023-10-08T07:29:16;15.90;99.90
27741;DHT22;15134;48.768;9.184;2023-10-08T07:31:45;16.00;99.90
27741;DHT22;15134;48.768;9.184;2023-10-08T07:34:17;16.30;99.90
27741;DHT22;15134;48.768;9.184;2023-10-08T07:36:48;16.50;99.90
27741;DHT22;15134;48.768;9.184;2023-10-08T07:39:19;16.60;99.90
27741;DHT22;15134;48.768;9.184;2023-10-08T07:41:58;16.70;99.90
27741;DHT22;15134;48.768;9.184;2023-10-08T07:44:26;16.90;99.90
27741;DHT22;15134;48.768;9.184;2023-10-08T07:46:54;16.90;99.90
27741;DHT22;15134;48.768;9.184;2023-10-08T07:49:20;17.00;99.90
27741;DHT22;15134;48.768;9.184;2023-10-08T07:51:49;17.10;99.90
27741;DHT22;15134;48.768;9.184;2023-10-08T07:54:20;17.10;99.90
27741;DHT22;15134;48.768;9.184;2023-10-08T07:56:51;17.20;99.90
27741;DHT22;15134;48.768;9.184;2023-10-08T07:59:17;17.20;99.90
27741;DHT22;15134;48.768;9.184;2023-10-08T08:01:44;17.30;99.90
27741;DHT22;15134;48.768;9.184;2023-10-08T08:04:13;17.30;99.90
27741;DHT22;15134;48.768;9.184;2023-10-08T08:06:51;17.40;99.90
27741;DHT22;15134;48.768;9.184;2023-10-08T08:09:18;17.40;99.90
27741;DHT22;15134;48.768;9.184;2023-10-08T08:11:46;17.40;99.90
27741;DHT22;15134;48.768;9.184;2023-10-08T08:14:15;17.40;99.90
27741;DHT22;15134;48.768;9.184;2023-10-08T08:16:49;17.50;99.90
27741;DHT22;15134;48.768;9.184;2023-10-08T08:19:16;17.50;99.90
27741;DHT22;15134;48.768;9.184;2023-10-08T08:21:43;17.50;99.90
27741;DHT22;15134;48.768;9.184;2023-10-08T08:24:13;17.50;99.90
27741;DHT22;15134;48.768;9.184;2023-10-08T08:26:50;17.50;99.90
27741;DHT22;15134;48.768;9.184;2023-10-08T08:29:36;17.60;99.90
27741;DHT22;15134;48.768;9.184;2023-10-08T08:32:11;17.70;99.90
27741;DHT22;15134;48.768;9.184;2023-10-08T08:34:50;17.80;99.90
27741;DHT22;15134;48.768;9.184;2023-10-08T08:37:16;18.00;99.90
27741;DHT22;15134;48.768;9.184;2023-10-08T08:39:42;18.50;99.90
27741;DHT22;15134;48.768;9.184;2023-10-08T08:42:08;18.70;99.90
27741;DHT22;15134;48.768;9.184;2023-10-08T08:44:36;18.90;99.90
27741;DHT22;15134;48.768;9.184;2023-10-08T08:47:14;19.10;99.90
27741;DHT22;15134;48.768;9.184;2023-10-08T08:49:50;19.30;99.90
27741;DHT22;15134;48.768;9.184;2023-10-08T08:52:20;19.80;99.90
27741;DHT22;15134;48.768;9.184;2023-10-08T08:54:46;20.20;99.90
27741;DHT22;15134;48.768;9.184;2023-10-08T08:57:13;20.70;99.90
27741;DHT22;15134;48.768;9.184;2023-10-08T08:59:53;20.90;99.90
27741;DHT22;15134;48.768;9.184;2023-10-08T09:02:19;21.10;99.90
27741;DHT22;15134;48.768;9.184;2023-10-08T09:04:47;21.10;99.90
27741;DHT22;15134;48.768;9.184;2023-10-08T09:07:13;21.00;99.90
27741;DHT22;15134;48.768;9.184;2023-10-08T09:09:39;20.90;99.90
27741;DHT22;15134;48.768;9.184;2023-10-08T09:12:05;20.80;99.90
27741;DHT22;15134;48.768;9.184;2023-10-08T09:14:33;20.80;99.90
27741;DHT22;15134;48.768;9.184;2023-10-08T09:17:00;20.90;99.90
27741;DHT22;15134;48.768;9.184;2023-10-08T09:19:26;21.10;99.90
27741;DHT22;15134;48.768;9.184;2023-10-08T09:22:03;21.30;99.90
27741;DHT22;15134;48.768;9.184;2023-10-08T09:24:33;21.50;99.90
27741;DHT22;15134;48.768;9.184;2023-10-08T09:27:06;21.80;99.90
27741;DHT22;15134;48.768;9.184;2023-10-08T09:29:32;22.20;99.90
27741;DHT22;15134;48.768;9.184;2023-10-08T09:32:04;22.40;99.90
27741;DHT22;15134;48.768;9.184;2023-10-08T09:34:31;22.50;99.90
27741;DHT22;15134;48.768;9.184;2023-10-08T09:37:00;22.50;99.90
27741;DHT22;15134;48.768;9.184;2023-10-08T09:39:28;22.40;99.90
27741;DHT22;15134;48.768;9.184;2023-10-08T09:42:01;22.30;99.90
27741;DHT22;15134;48.768;9.184;2023-10-08T09:44:37;22.20;99.90
27741;DHT22;15134;48.768;9.184;2023-10-08T09:47:04;22.20;99.90
27741;DHT22;15134;48.768;9.184;2023-10-08T09:49:39;22.10;99.90
27741;DHT22;15134;48.768;9.184;2023-10-08T09:52:08;22.10;99.90
27741;DHT22;15134;48.768;9.184;2023-10-08T09:57:39;22.00;99.90
27741;DHT22;15134;48.768;9.184;2023-10-08T10:00:07;21.90;99.90
27741;DHT22;15134;48.768;9.184;2023-10-08T10:02:43;21.90;99.90
27741;DHT22;15134;48.768;9.184;2023-10-08T10:05:12;21.90;99.90
27741;DHT22;15134;48.768;9.184;2023-10-08T10:07:40;21.90;99.90
27741;DHT22;15134;48.768;9.184;2023-10-08T10:10:28;21.90;99.90
27741;DHT22;15134;48.768;9.184;2023-10-08T10:13:02;22.00;99.90
27741;DHT22;15134;48.768;9.184;2023-10-08T10:15:27;22.00;99.90
27741;DHT22;15134;48.768;9.184;2023-10-08T10:18:29;22.00;99.90
27741;DHT22;15134;48.768;9.184;2023-10-08T10:23:53;22.00;99.90
27741;DHT22;15134;48.768;9.184;2023-10-08T10:26:32;21.90;99.90
27741;DHT22;15134;48.768;9.184;2023-10-08T10:31:41;21.90;99.90
27741;DHT22;15134;48.768;9.184;2023-10-08T10:34:14;21.90;99.90
27741;DHT22;15134;48.768;9.184;2023-10-08T10:36:43;21.90;99.90
27741;DHT22;15134;48.768;9.184;2023-10-08T10:39:10;21.90;99.90
27741;DHT22;15134;48.768;9.184;2023-10-08T10:41:48;21.90;99.90
27741;DHT22;15134;48.768;9.184;2023-10-08T10:44:17;21.90;99.90
27741;DHT22;15134;48.768;9.184;2023-10-08T10:46:43;22.00;99.90
27741;DHT22;15134;48.768;9.184;2023-10-08T10:49:17;22.00;99.90
27741;DHT22;15134;48.768;9.184;2023-10-08T10:51:46;22.10;99.90
27741;DHT22;15134;48.768;9.184;2023-10-08T10:54:12;22.20;99.90
27741;DHT22;15134;48.768;9.184;2023-10-08T10:56:47;22.20;99.90
27741;DHT22;15134;48.768;9.184;2023-10-08T10:59:13;22.10;99.90
27741;DHT22;15134;48.768;9.184;2023-10-08T11:01:49;22.00;99.90
27741;DHT22;15134;48.768;9.184;2023-10-08T11:04:35;21.90;99.90
27741;DHT22;15134;48.768;9.184;2023-10-08T11:07:20;21.70;99.90
27741;DHT22;15134;48.768;9.184;2023-10-08T11:09:50;21.70;99.90
27741;DHT22;15134;48.768;9.184;2023-10-08T11:12:18;21.70;99.90
27741;DHT22;15134;48.768;9.184;2023-10-08T11:14:49;21.70;99.90
27741;DHT22;15134;48.768;9.184;2023-10-08T11:17:23;21.80;99.90
27741;DHT22;15134;48.768;9.184;2023-10-08T11:19:50;21.80;99.90
27741;DHT22;15134;48.768;9.184;2023-10-08T11:22:17;21.80;99.90
27741;DHT22;15134;48.768;9.184;2023-10-08T11:24:45;21.80;99.90
27741;DHT22;15134;48.768;9.184;2023-10-08T11:27:16;21.70;99.90
27741;DHT22;15134;48.768;9.184;2023-10-08T11:29:47;21.80;99.90
27741;DHT22;15134;48.768;9.184;2023-10-08T11:32:15;21.80;99.90
27741;DHT22;15134;48.768;9.184;2023-10-08T11:34:47;21.90;99.90
27741;DHT22;15134;48.768;9.184;2023-10-08T11:37:33;22.00;99.90
27741;DHT22;15134;48.768;9.184;2023-10-08T11:40:00;22.00;99.90
27741;DHT22;15134;48.768;9.184;2023-10-08T11:42:34;22.20;99.90
27741;DHT22;15134;48.768;9.184;2023-10-08T11:45:00;22.40;99.90
27741;DHT22;15134;48.768;9.184;2023-10-08T11:47:44;22.50;99.90
27741;DHT22;15134;48.768;9.184;2023-10-08T11:50:11;22.70;99.90
27741;DHT22;15134;48.768;9.184;2023-10-08T11:52:42;22.80;99.90
27741;DHT22;15134;48.768;9.184;2023-10-08T11:55:09;22.80;99.90
27741;DHT22;15134;48.768;9.184;2023-10-08T11:57:36;22.80;99.90
27741;DHT22;15134;48.768;9.184;2023-10-08T12:00:08;22.80;99.90
27741;DHT22;15134;48.768;9.184;2023-10-08T12:02:46;22.90;99.90
27741;DHT22;15134;48.768;9.184;2023-10-08T12:05:11;22.90;99.90
27741;DHT22;15134;48.768;9.184;2023-10-08T12:07:47;23.00;99.90
27741;DHT22;15134;48.768;9.184;2023-10-08T12:10:14;23.20;99.90
27741;DHT22;15134;48.768;9.184;2023-10-08T12:12:42;23.40;99.90
27741;DHT22;15134;48.768;9.184;2023-10-08T12:15:11;23.60;99.90
27741;DHT22;15134;48.768;9.184;2023-10-08T12:17:44;23.70;99.90
27741;DHT22;15134;48.768;9.184;2023-10-08T12:20:10;23.80;99.90
27741;DHT22;15134;48.768;9.184;2023-10-08T12:22:51;23.80;99.90
27741;DHT22;15134;48.768;9.184;2023-10-08T12:25:17;23.90;99.90
27741;DHT22;15134;48.768;9.184;2023-10-08T12:27:43;23.80;99.90
27741;DHT22;15134;48.768;9.184;2023-10-08T12:30:09;23.80;99.90
27741;DHT22;15134;48.768;9.184;2023-10-08T12:32:39;23.70;99.90
27741;DHT22;15134;48.768;9.184;2023-10-08T12:35:10;23.70;99.90
27741;DHT22;15134;48.768;9.184;2023-10-08T12:37:41;23.70;99.90
27741;DHT22;15134;48.768;9.184;2023-10-08T12:40:10;23.60;99.90
27741;DHT22;15134;48.768;9.184;2023-10-08T12:42:54;23.60;99.90
27741;DHT22;15134;48.768;9.184;2023-10-08T12:45:20;23.60;99.90
27741;DHT22;15134;48.768;9.184;2023-10-08T12:47:48;23.50;99.90
27741;DHT22;15134;48.768;9.184;2023-10-08T12:50:16;23.50;99.90
27741;DHT22;15134;48.768;9.184;2023-10-08T12:52:45;23.50;99.90
27741;DHT22;15134;48.768;9.184;2023-10-08T12:55:19;23.50;99.90
27741;DHT22;15134;48.768;9.184;2023-10-08T12:57:53;23.50;99.90
27741;DHT22;15134;48.768;9.184;2023-10-08T13:00:24;23.50;99.90
27741;DHT22;15134;48.768;9.184;2023-10-08T13:02:51;23.60;99.90
27741;DHT22;15134;48.768;9.184;2023-10-08T13:05:21;23.60;99.90
27741;DHT22;15134;48.768;9.184;2023-10-08T13:07:56;23.60;99.90
27741;DHT22;15134;48.768;9.184;2023-10-08T13:10:23;23.60;99.90
27741;DHT22;15134;48.768;9.184;2023-10-08T13:12:49;23.60;99.90
27741;DHT22;15134;48.768;9.184;2023-10-08T13:15:15;23.60;99.90
27741;DHT22;15134;48.768;9.184;2023-10-08T13:17:41;23.60;99.90
27741;DHT22;15134;48.768;9.184;2023-10-08T13:20:13;23.60;99.90
27741;DHT22;15134;48.768;9.184;2023-10-08T13:22:40;23.70;99.90
27741;DHT22;15134;48.768;9.184;2023-10-08T13:25:06;23.70;99.90
27741;DHT22;15134;48.768;9.184;2023-10-08T13:27:32;23.80;99.90
27741;DHT22;15134;48.768;9.184;2023-10-08T13:29:58;23.80;99.90
27741;DHT22;15134;48.768;9.184;2023-10-08T13:32:25;23.80;99.90
27741;DHT22;15134;48.768;9.184;2023-10-08T13:34:51;23.80;99.90
27741;DHT22;15134;48.768;9.184;2023-10-08T13:37:17;23.90;99.90
27741;DHT22;15134;48.768;9.184;2023-10-08T13:39:43;23.90;99.90
27741;DHT22;15134;48.768;9.184;2023-10-08T13:42:09;23.80;99.90
27741;DHT22;15134;48.768;9.184;2023-10-08T13:44:39;23.90;99.90
27741;DHT22;15134;48.768;9.184;2023-10-08T13:47:05;23.80;99.90
27741;DHT22;15134;48.768;9.184;2023-10-08T13:49:31;23.80;99.90
27741;DHT22;15134;48.768;9.184;2023-10-08T13:51:58;23.80;99.90
27741;DHT22;15134;48.768;9.184;2023-10-08T13:54:24;23.80;99.90
27741;DHT22;15134;48.768;9.184;2023-10-08T13:56:58;23.80;99.90
27741;DHT22;15134;48.768;9.184;2023-10-08T13:59:26;23.70;99.90
27741;DHT22;15134;48.768;9.184;2023-10-08T14:01:55;23.70;99.90
27741;DHT22;15134;48.768;9.184;2023-10-08T14:04:22;23.60;99.90
27741;DHT22;15134;48.768;9.184;2023-10-08T14:07:00;23.70;99.90
27741;DHT22;15134;48.768;9.184;2023-10-08T14:09:28;23.70;99.90
27741;DHT22;15134;48.768;9.184;2023-10-08T14:11:57;23.60;99.90
27741;DHT22;15134;48.768;9.184;2023-10-08T14:14:23;23.60;99.90
27741;DHT22;15134;48.768;9.184;2023-10-08T14:16:55;23.60;99.90
27741;DHT22;15134;48.768;9.184;2023-10-08T14:19:26;23.60;99.90
27741;DHT22;15134;48.768;9.184;2023-10-08T14:22:05;23.50;99.90
27741;DHT22;15134;48.768;9.184;2023-10-08T14:24:34;23.50;99.90
27741;DHT22;15134;48.768;9.184;2023-10-08T14:27:04;23.50;99.90
27741;DHT22;15134;48.768;9.184;2023-10-08T14:29:37;23.40;99.90
27741;DHT22;15134;48.768;9.184;2023-10-08T14:32:08;23.40;99.90
27741;DHT22;15134;48.768;9.184;2023-10-08T14:34:37;23.30;99.90
27741;DHT22;15134;48.768;9.184;2023-10-08T14:37:13;23.30;99.90
27741;DHT22;15134;48.768;9.184;2023-10-08T14:39:57;23.20;99.90
27741;DHT22;15134;48.768;9.184;2023-10-08T14:42:42;23.20;99.90
27741;DHT22;15134;48.768;9.184;2023-10-08T14:45:24;23.10;99.90
27741;DHT22;15134;48.768;9.184;2023-10-08T14:47:54;23.00;99.90
27741;DHT22;15134;48.768;9.184;2023-10-08T14:50:24;23.10;99.90
27741;DHT22;15134;48.768;9.184;2023-10-08T14:52:53;23.00;99.90
27741;DHT22;15134;48.768;9.184;2023-10-08T14:55:21;23.00;99.90
27741;DHT22;15134;48.768;9.184;2023-10-08T14:57:49;23.00;99.90
27741;DHT22;15134;48.768;9.184;2023-10-08T15:00:19;23.00;99.90
27741;DHT22;15134;48.768;9.184;2023-10-08T15:02:52;22.90;99.90
27741;DHT22;15134;48.768;9.184;2023-10-08T15:05:22;22.90;99.90
27741;DHT22;15134;48.768;9.184;2023-10-08T15:07:51;22.90;99.90
27741;DHT22;15134;48.768;9.184;2023-10-08T15:10:17;22.80;99.90
27741;DHT22;15134;48.768;9.184;2023-10-08T15:12:43;22.80;99.90
27741;DHT22;15134;48.768;9.184;2023-10-08T15:15:10;22.80;99.90
27741;DHT22;15134;48.768;9.184;2023-10-08T15:17:40;22.70;99.90
27741;DHT22;15134;48.768;9.184;2023-10-08T15:20:06;22.80;99.90
27741;DHT22;15134;48.768;9.184;2023-10-08T15:22:32;22.70;99.90
27741;DHT22;15134;48.768;9.184;2023-10-08T15:24:58;22.70;99.90
27741;DHT22;15134;48.768;9.184;2023-10-08T15:27:24;22.70;99.90
27741;DHT22;15134;48.768;9.184;2023-10-08T15:29:49;22.60;99.90
27741;DHT22;15134;48.768;9.184;2023-10-08T15:32:15;22.60;99.90
27741;DHT22;15134;48.768;9.184;2023-10-08T15:34:41;22.60;99.90
27741;DHT22;15134;48.768;9.184;2023-10-08T15:37:07;22.60;99.90
27741;DHT22;15134;48.768;9.184;2023-10-08T15:39:32;22.50;99.90
27741;DHT22;15134;48.768;9.184;2023-10-08T15:41:58;22.50;99.90
27741;DHT22;15134;48.768;9.184;2023-10-08T15:44:24;22.40;99.90
27741;DHT22;15134;48.768;9.184;2023-10-08T15:46:50;22.40;99.90
27741;DHT22;15134;48.768;9.184;2023-10-08T15:49:17;22.30;99.90
27741;DHT22;15134;48.768;9.184;2023-10-08T15:51:46;22.30;99.90
27741;DHT22;15134;48.768;9.184;2023-10-08T15:54:12;22.20;99.90
27741;DHT22;15134;48.768;9.184;2023-10-08T15:56:38;22.20;99.90
27741;DHT22;15134;48.768;9.184;2023-10-08T15:59:06;22.20;99.90
27741;DHT22;15134;48.768;9.184;2023-10-08T16:01:32;22.10;99.90